createdAt,value
2022-10-17T00:01:15.561Z,15.78
2022-10-17T00:03:43.860Z,15.76
2022-10-17T00:06:15.605Z,15.71
2022-10-17T00:08:45.085Z,15.69
2022-10-17T00:11:18.830Z,15.64
2022-10-17T00:13:47.755Z,15.61
2022-10-17T00:16:17.202Z,15.56
2022-10-17T00:18:45.453Z,15.53
2022-10-17T00:21:18.261Z,15.50
2022-10-17T00:23:46.833Z,15.46
2022-10-17T00:26:17.945Z,15.45
2022-10-17T00:28:48.755Z,15.44
2022-10-17T00:31:20.262Z,15.46
2022-10-17T00:33:49.705Z,15.46
2022-10-17T00:36:20.280Z,15.44
2022-10-17T00:38:52.189Z,15.39
2022-10-17T00:41:24.777Z,15.35
2022-10-17T00:44:00.170Z,15.35
2022-10-17T00:46:31.236Z,15.28
2022-10-17T00:49:04.476Z,15.18
2022-10-17T00:51:40.682Z,15.08
2022-10-17T00:54:10.927Z,14.98
2022-10-17T00:56:41.269Z,14.93
2022-10-17T00:59:10.873Z,14.83
2022-10-17T01:01:40.944Z,14.81
2022-10-17T01:04:09.873Z,14.74
2022-10-17T01:06:40.953Z,14.63
2022-10-17T01:09:09.905Z,14.55
2022-10-17T01:11:50.906Z,14.52
2022-10-17T01:14:30.991Z,14.46
2022-10-17T01:17:10.245Z,14.44
2022-10-17T01:20:06.921Z,14.33
2022-10-17T01:22:42.671Z,14.35
2022-10-17T01:25:31.193Z,14.27
2022-10-17T01:28:20.436Z,14.28
2022-10-17T01:31:07.842Z,14.27
2022-10-17T01:33:54.707Z,14.26
2022-10-17T01:36:38.122Z,14.32
2022-10-17T01:39:17.400Z,14.24
2022-10-17T01:41:51.440Z,14.23
2022-10-17T01:44:23.883Z,14.23
2022-10-17T01:46:59.548Z,14.20
2022-10-17T01:49:30.783Z,14.21
2022-10-17T01:52:05.160Z,14.12
2022-10-17T01:54:40.718Z,14.02
2022-10-17T01:57:14.357Z,13.99
2022-10-17T01:59:46.067Z,13.99
2022-10-17T02:02:17.889Z,14.00
2022-10-17T02:04:48.496Z,14.02
2022-10-17T02:07:17.107Z,14.02
2022-10-17T02:09:45.585Z,14.08
2022-10-17T02:12:36.407Z,14.10
2022-10-17T02:15:33.100Z,14.13
2022-10-17T02:18:17.663Z,14.16
2022-10-17T02:20:52.984Z,14.13
2022-10-17T02:23:31.378Z,14.11
2022-10-17T02:26:08.399Z,14.11
2022-10-17T02:28:46.142Z,14.11
2022-10-17T02:31:18.094Z,14.10
2022-10-17T02:33:53.899Z,14.10
2022-10-17T02:36:26.423Z,13.98
2022-10-17T02:38:56.845Z,13.92
2022-10-17T02:41:26.547Z,13.89
2022-10-17T02:43:57.701Z,13.89
2022-10-17T02:46:29.820Z,13.81
2022-10-17T02:49:04.612Z,13.76
2022-10-17T02:51:43.902Z,13.65
2022-10-17T02:54:18.975Z,13.61
2022-10-17T02:56:54.795Z,13.57
2022-10-17T02:59:26.267Z,13.54
2022-10-17T03:01:54.828Z,13.52
2022-10-17T03:04:24.524Z,13.62
2022-10-17T03:06:52.869Z,13.52
2022-10-17T03:09:21.100Z,13.58
2022-10-17T03:11:49.437Z,13.55
2022-10-17T03:14:17.838Z,13.52
2022-10-17T03:17:01.290Z,13.46
2022-10-17T03:19:31.159Z,13.44
2022-10-17T03:21:59.597Z,13.46
2022-10-17T03:24:27.842Z,13.43
2022-10-17T03:26:56.366Z,13.41
2022-10-17T03:29:24.964Z,13.44
2022-10-17T03:31:53.226Z,13.41
2022-10-17T03:34:21.712Z,13.36
2022-10-17T03:36:51.418Z,13.34
2022-10-17T03:39:20.713Z,13.31
2022-10-17T03:41:49.735Z,13.28
2022-10-17T03:44:18.053Z,13.21
2022-10-17T03:46:46.485Z,13.22
2022-10-17T03:49:14.886Z,13.18
2022-10-17T03:51:43.342Z,13.19
2022-10-17T03:54:16.478Z,13.19
2022-10-17T03:56:44.975Z,13.17
2022-10-17T03:59:17.469Z,13.21
2022-10-17T04:01:52.675Z,13.18
2022-10-17T04:04:21.026Z,13.17
2022-10-17T04:06:49.370Z,13.19
2022-10-17T04:09:19.293Z,13.23
2022-10-17T04:11:57.074Z,13.22
2022-10-17T04:14:26.222Z,13.24
2022-10-17T04:16:54.567Z,13.29
2022-10-17T04:19:23.412Z,13.34
2022-10-17T04:21:52.217Z,13.31
2022-10-17T04:24:22.200Z,13.32
2022-10-17T04:27:09.201Z,13.29
2022-10-17T04:29:42.401Z,13.19
2022-10-17T04:32:29.011Z,13.16
2022-10-17T04:35:04.951Z,13.15
2022-10-17T04:37:33.766Z,13.11
2022-10-17T04:40:11.232Z,13.07
2022-10-17T04:42:39.552Z,13.01
2022-10-17T04:45:09.621Z,12.97
2022-10-17T04:47:38.607Z,12.98
2022-10-17T04:50:07.841Z,12.91
2022-10-17T04:52:38.093Z,12.92
2022-10-17T04:55:09.051Z,12.87
2022-10-17T04:57:37.936Z,12.91
2022-10-17T05:00:16.847Z,12.93
2022-10-17T05:02:55.218Z,12.95
2022-10-17T05:05:23.449Z,12.91
2022-10-17T05:07:54.743Z,12.86
2022-10-17T05:10:28.074Z,12.85
2022-10-17T05:12:56.426Z,12.84
2022-10-17T05:15:28.928Z,12.86
2022-10-17T05:17:58.453Z,12.85
2022-10-17T05:20:28.639Z,12.84
2022-10-17T05:22:57.035Z,12.72
2022-10-17T05:25:26.787Z,12.72
2022-10-17T05:27:55.135Z,12.71
2022-10-17T05:30:27.115Z,12.71
2022-10-17T05:32:59.891Z,12.75
2022-10-17T05:35:28.358Z,12.75
2022-10-17T05:37:57.520Z,12.74
2022-10-17T05:40:28.443Z,12.78
2022-10-17T05:42:56.760Z,12.79
2022-10-17T05:45:26.366Z,12.80
2022-10-17T05:47:54.725Z,12.80
2022-10-17T05:50:24.224Z,12.79
2022-10-17T05:53:06.618Z,12.78
2022-10-17T05:55:42.269Z,12.81
2022-10-17T05:58:17.671Z,12.80
2022-10-17T06:01:00.121Z,12.81
2022-10-17T06:03:29.290Z,12.80
2022-10-17T06:05:59.576Z,12.79
2022-10-17T06:08:28.014Z,12.80
2022-10-17T06:10:57.679Z,12.81
2022-10-17T06:13:26.085Z,12.79
2022-10-17T06:15:55.765Z,12.81
2022-10-17T06:18:26.293Z,12.80
2022-10-17T06:20:55.208Z,12.81
2022-10-17T06:23:23.698Z,12.79
2022-10-17T06:26:06.581Z,12.79
2022-10-17T06:28:36.213Z,12.78
2022-10-17T06:31:07.401Z,12.79
2022-10-17T06:33:36.559Z,12.79
2022-10-17T06:36:08.204Z,12.79
2022-10-17T06:38:37.217Z,12.80
2022-10-17T06:41:14.655Z,12.81
2022-10-17T06:43:46.275Z,12.82
2022-10-17T06:46:46.855Z,12.82
2022-10-17T06:49:17.994Z,12.84
2022-10-17T06:51:51.913Z,12.85
2022-10-17T06:54:24.678Z,12.85
2022-10-17T06:57:06.337Z,12.88
2022-10-17T07:00:14.523Z,12.90
2022-10-17T07:02:47.965Z,12.90
2022-10-17T07:05:16.507Z,12.92
2022-10-17T07:07:46.398Z,12.97
2022-10-17T07:10:17.047Z,13.03
2022-10-17T07:12:47.047Z,13.05
2022-10-17T07:15:15.549Z,13.05
2022-10-17T07:17:43.941Z,13.07
2022-10-17T07:20:12.966Z,13.12
2022-10-17T07:22:41.418Z,13.17
2022-10-17T07:25:10.953Z,13.27
2022-10-17T07:28:02.154Z,13.32
2022-10-17T07:30:30.716Z,13.38
2022-10-17T07:33:04.664Z,13.52
2022-10-17T07:35:33.165Z,13.64
2022-10-17T07:38:01.416Z,13.70
2022-10-17T07:40:29.907Z,13.75
2022-10-17T07:43:00.013Z,13.74
2022-10-17T07:45:29.139Z,13.81
2022-10-17T07:47:59.117Z,13.91
2022-10-17T07:50:27.549Z,13.92
2022-10-17T07:52:55.947Z,13.99
2022-10-17T07:55:24.237Z,14.04
2022-10-17T07:57:52.617Z,14.05
2022-10-17T08:00:22.258Z,14.11
2022-10-17T08:02:50.564Z,14.14
2022-10-17T08:05:19.011Z,14.26
2022-10-17T08:07:47.480Z,14.33
2022-10-17T08:10:17.615Z,14.41
2022-10-17T08:12:46.128Z,14.50
2022-10-17T08:15:14.610Z,14.59
2022-10-17T08:17:44.428Z,14.65
2022-10-17T08:20:13.241Z,14.71
2022-10-17T08:22:41.771Z,14.67
2022-10-17T08:25:10.960Z,14.63
2022-10-17T08:27:39.325Z,14.63
2022-10-17T08:30:09.520Z,14.75
2022-10-17T08:32:37.974Z,14.73
2022-10-17T08:35:08.713Z,14.73
2022-10-17T08:37:37.247Z,14.76
2022-10-17T08:40:07.174Z,14.81
2022-10-17T08:42:57.137Z,14.93
2022-10-17T08:45:33.395Z,14.98
2022-10-17T08:48:03.942Z,15.11
2022-10-17T08:50:40.547Z,15.32
2022-10-17T08:53:17.442Z,15.52
2022-10-17T08:55:48.683Z,15.57
2022-10-17T08:58:21.943Z,15.57
2022-10-17T09:01:03.456Z,15.57
2022-10-17T09:03:53.144Z,15.64
2022-10-17T09:06:29.940Z,15.71
2022-10-17T09:09:16.913Z,15.89
2022-10-17T09:11:58.035Z,16.12
2022-10-17T09:14:54.085Z,16.14
2022-10-17T09:17:36.444Z,16.10
2022-10-17T09:20:11.827Z,16.06
2022-10-17T09:22:49.213Z,16.16
2022-10-17T09:25:21.012Z,16.37
2022-10-17T09:27:53.672Z,16.45
2022-10-17T09:30:45.049Z,16.54
2022-10-17T09:33:34.419Z,16.56
2022-10-17T09:36:11.268Z,16.72
2022-10-17T09:38:44.146Z,16.69
2022-10-17T09:41:43.592Z,16.69
2022-10-17T09:44:20.396Z,16.67
2022-10-17T09:47:14.086Z,16.65
2022-10-17T09:49:44.814Z,16.66
2022-10-17T09:52:16.870Z,16.71
2022-10-17T09:54:50.104Z,16.83
2022-10-17T09:57:20.817Z,17.04
2022-10-17T09:59:58.715Z,17.10
2022-10-17T10:02:29.753Z,17.18
2022-10-17T10:05:05.102Z,17.36
2022-10-17T10:07:37.388Z,17.51
2022-10-17T10:10:09.970Z,17.54
2022-10-17T10:12:40.659Z,17.76
2022-10-17T10:15:34.408Z,17.97
2022-10-17T10:18:03.445Z,18.11
2022-10-17T10:20:36.303Z,18.15
2022-10-17T10:23:21.494Z,18.19
2022-10-17T10:25:55.222Z,18.19
2022-10-17T10:28:28.402Z,18.28
2022-10-17T10:30:59.425Z,18.23
2022-10-17T10:33:31.186Z,18.32
2022-10-17T10:36:03.341Z,18.45
2022-10-17T10:38:33.813Z,18.53
2022-10-17T10:41:07.821Z,18.59
2022-10-17T10:43:40.459Z,18.80
2022-10-17T10:46:23.497Z,19.01
2022-10-17T10:48:55.349Z,19.13
2022-10-17T10:51:29.750Z,19.17
2022-10-17T10:54:06.491Z,19.18
2022-10-17T10:56:40.193Z,19.32
2022-10-17T10:59:20.116Z,19.35
2022-10-17T11:01:55.874Z,19.31
2022-10-17T11:04:33.911Z,19.41
2022-10-17T11:07:06.951Z,19.47
2022-10-17T11:09:54.080Z,19.65
2022-10-17T11:12:30.176Z,19.74
2022-10-17T11:15:05.176Z,19.76
2022-10-17T11:17:39.995Z,19.86
2022-10-17T11:20:19.375Z,20.04
2022-10-17T11:22:50.686Z,20.27
2022-10-17T11:25:33.158Z,20.40
2022-10-17T11:28:05.083Z,20.66
2022-10-17T11:33:28.028Z,21.01
2022-10-17T11:36:04.546Z,21.11
2022-10-17T11:38:44.919Z,21.37
2022-10-17T11:41:18.395Z,21.62
2022-10-17T11:43:54.863Z,21.91
2022-10-17T11:46:26.121Z,22.12
2022-10-17T11:49:08.960Z,22.28
2022-10-17T11:52:02.899Z,22.42
2022-10-17T11:54:37.727Z,22.74
2022-10-17T11:57:25.879Z,22.96
2022-10-17T12:00:09.003Z,23.06
2022-10-17T12:02:43.836Z,23.30
2022-10-17T12:05:23.602Z,23.54
2022-10-17T12:07:57.468Z,23.68
2022-10-17T12:10:40.298Z,23.80
2022-10-17T12:13:57.866Z,23.97
2022-10-17T12:16:46.120Z,24.25
2022-10-17T12:19:38.113Z,24.39
2022-10-17T12:22:20.711Z,24.59
2022-10-17T12:25:01.322Z,24.74
2022-10-17T12:27:45.946Z,24.82
2022-10-17T12:30:24.543Z,24.90
2022-10-17T12:33:07.435Z,25.01
2022-10-17T12:35:39.107Z,25.20
2022-10-17T12:38:27.835Z,25.29
2022-10-17T12:41:01.600Z,25.43
2022-10-17T12:43:57.071Z,25.53
2022-10-17T12:46:51.043Z,25.57
2022-10-17T12:49:43.259Z,25.69
2022-10-17T12:52:54.903Z,25.81
2022-10-17T12:55:26.837Z,25.81
2022-10-17T12:58:00.244Z,25.75
2022-10-17T13:00:37.119Z,25.88
2022-10-17T13:03:13.269Z,25.96
2022-10-17T13:05:49.457Z,26.09
2022-10-17T13:08:22.189Z,26.29
2022-10-17T13:10:53.507Z,26.41
2022-10-17T13:13:37.633Z,26.58
2022-10-17T13:16:06.645Z,26.80
2022-10-17T13:18:35.577Z,26.98
2022-10-17T13:21:08.487Z,27.00
2022-10-17T13:23:39.077Z,27.11
2022-10-17T13:26:16.120Z,27.19
2022-10-17T13:28:44.918Z,26.96
2022-10-17T13:31:31.824Z,27.01
2022-10-17T13:34:02.940Z,26.96
2022-10-17T13:36:35.474Z,26.99
2022-10-17T13:39:12.196Z,27.08
2022-10-17T13:41:41.967Z,27.13
2022-10-17T13:44:15.503Z,27.12
2022-10-17T13:46:45.076Z,27.29
2022-10-17T13:49:23.176Z,27.41
2022-10-17T13:51:57.058Z,27.46
2022-10-17T13:54:40.179Z,27.32
2022-10-17T13:57:21.340Z,27.18
2022-10-17T13:59:52.673Z,27.26
2022-10-17T14:02:24.257Z,27.40
2022-10-17T14:05:16.700Z,27.36
2022-10-17T14:10:44.528Z,27.43
2022-10-17T14:13:24.304Z,27.45
2022-10-17T14:15:54.867Z,27.52
2022-10-17T14:18:33.269Z,27.59
2022-10-17T14:24:27.797Z,27.74
2022-10-17T14:26:58.984Z,27.83
2022-10-17T14:29:30.256Z,27.89
2022-10-17T14:32:06.057Z,27.88
2022-10-17T14:34:37.936Z,27.89
2022-10-17T14:37:11.841Z,27.88
2022-10-17T14:39:41.924Z,28.01
2022-10-17T14:42:20.580Z,28.11
2022-10-17T14:44:51.590Z,28.04
2022-10-17T14:47:42.820Z,27.99
2022-10-17T14:50:24.663Z,27.91
2022-10-17T14:53:05.930Z,27.86
2022-10-17T14:55:37.246Z,27.94
2022-10-17T14:58:18.085Z,27.93
2022-10-17T15:00:46.739Z,27.97
2022-10-17T15:03:15.292Z,27.97
2022-10-17T15:05:43.782Z,28.08
2022-10-17T15:08:14.910Z,28.22
2022-10-17T15:10:46.130Z,28.32
2022-10-17T15:13:27.699Z,28.34
2022-10-17T15:15:57.639Z,28.35
2022-10-17T15:18:26.060Z,28.48
2022-10-17T15:21:04.574Z,28.47
2022-10-17T15:23:34.993Z,28.57
2022-10-17T15:26:04.969Z,28.57
2022-10-17T15:28:33.383Z,28.58
2022-10-17T15:31:01.788Z,28.42
2022-10-17T15:33:30.232Z,28.29
2022-10-17T15:38:26.926Z,28.18
2022-10-17T15:40:55.355Z,28.06
2022-10-17T15:43:25.286Z,28.05
2022-10-17T15:45:53.860Z,27.88
2022-10-17T15:48:31.210Z,27.68
2022-10-17T15:50:59.738Z,27.54
2022-10-17T15:53:28.145Z,27.42
2022-10-17T15:55:56.688Z,27.28
2022-10-17T15:58:28.262Z,27.16
2022-10-17T16:00:56.626Z,27.00
2022-10-17T16:03:25.061Z,26.89
2022-10-17T16:05:53.443Z,26.79
2022-10-17T16:08:21.723Z,26.76
2022-10-17T16:10:50.658Z,26.68
2022-10-17T16:13:21.184Z,26.53
2022-10-17T16:15:51.492Z,26.38
2022-10-17T16:18:21.131Z,26.30
2022-10-17T16:20:49.627Z,26.23
2022-10-17T16:23:17.959Z,26.12
2022-10-17T16:25:46.351Z,26.03
2022-10-17T16:28:14.599Z,25.91
2022-10-17T16:30:46.170Z,25.84
2022-10-17T16:33:15.859Z,25.75
2022-10-17T16:35:45.699Z,25.63
2022-10-17T16:38:14.110Z,25.55
2022-10-17T16:40:42.590Z,25.54
2022-10-17T16:43:13.300Z,25.46
2022-10-17T16:45:42.042Z,25.44
2022-10-17T16:48:12.250Z,25.31
2022-10-17T16:50:42.302Z,25.20
2022-10-17T16:53:10.652Z,25.09
2022-10-17T16:55:39.150Z,24.97
2022-10-17T16:58:07.510Z,24.92
2022-10-17T17:00:36.065Z,24.87
2022-10-17T17:03:04.388Z,24.80
2022-10-17T17:05:32.804Z,24.69
2022-10-17T17:08:03.780Z,24.53
2022-10-17T17:10:32.229Z,24.55
2022-10-17T17:13:01.732Z,24.42
2022-10-17T17:15:30.359Z,24.36
2022-10-17T17:18:02.688Z,24.27
2022-10-17T17:20:34.809Z,24.15
2022-10-17T17:23:04.464Z,24.11
2022-10-17T17:25:35.233Z,24.01
2022-10-17T17:28:03.744Z,23.91
2022-10-17T17:30:33.059Z,23.78
2022-10-17T17:33:01.685Z,23.74
2022-10-17T17:35:31.389Z,23.68
2022-10-17T17:41:13.749Z,23.53
2022-10-17T17:43:42.236Z,23.41
2022-10-17T17:46:11.254Z,23.37
2022-10-17T17:48:41.049Z,23.33
2022-10-17T17:51:12.443Z,23.23
2022-10-17T17:53:41.711Z,23.17
2022-10-17T17:56:14.080Z,23.08
2022-10-17T17:58:45.547Z,23.02
2022-10-17T18:01:20.379Z,23.03
2022-10-17T18:03:52.753Z,22.99
2022-10-17T18:06:22.884Z,22.95
2022-10-17T18:08:53.462Z,22.90
2022-10-17T18:11:23.737Z,22.85
2022-10-17T18:13:55.753Z,22.79
2022-10-17T18:16:24.216Z,22.74
2022-10-17T18:18:52.628Z,22.67
2022-10-17T18:21:21.018Z,22.61
2022-10-17T18:23:50.313Z,22.51
2022-10-17T18:26:19.069Z,22.41
2022-10-17T18:28:50.681Z,22.30
2022-10-17T18:31:24.433Z,22.21
2022-10-17T18:33:53.774Z,22.12
2022-10-17T18:36:22.914Z,22.08
2022-10-17T18:38:51.389Z,22.01
2022-10-17T18:41:23.494Z,21.97
2022-10-17T18:43:55.029Z,21.96
2022-10-17T18:46:25.601Z,21.95
2022-10-17T18:48:54.688Z,21.88
2022-10-17T18:51:25.785Z,21.77
2022-10-17T18:53:56.496Z,21.68
2022-10-17T18:56:25.127Z,21.56
2022-10-17T18:58:55.391Z,21.44
2022-10-17T19:01:27.287Z,21.38
2022-10-17T19:03:58.482Z,21.32
2022-10-17T19:06:31.709Z,21.30
2022-10-17T19:09:00.409Z,21.23
2022-10-17T19:11:30.704Z,21.08
2022-10-17T19:14:12.708Z,21.08
2022-10-17T19:16:45.300Z,20.97
2022-10-17T19:19:16.907Z,20.90
2022-10-17T19:21:45.904Z,20.90
2022-10-17T19:24:16.757Z,20.88
2022-10-17T19:26:47.711Z,20.82
2022-10-17T19:29:18.944Z,20.81
2022-10-17T19:31:48.421Z,20.81
2022-10-17T19:34:18.030Z,20.77
2022-10-17T19:36:46.565Z,20.72
2022-10-17T19:39:17.979Z,20.64
2022-10-17T19:41:48.618Z,20.59
2022-10-17T19:44:18.926Z,20.52
2022-10-17T19:46:49.206Z,20.43
2022-10-17T19:49:18.112Z,20.30
2022-10-17T19:51:46.416Z,20.17
2022-10-17T19:54:18.301Z,20.13
2022-10-17T19:56:46.888Z,20.05
2022-10-17T19:59:18.296Z,19.99
2022-10-17T20:01:46.853Z,19.88
2022-10-17T20:04:15.573Z,19.84
2022-10-17T20:06:44.188Z,19.78
2022-10-17T20:09:16.694Z,19.73
2022-10-17T20:11:46.597Z,19.64
2022-10-17T20:14:14.976Z,19.63
2022-10-17T20:16:49.991Z,19.60
2022-10-17T20:19:19.877Z,19.51
2022-10-17T20:21:48.155Z,19.41
2022-10-17T20:24:17.918Z,19.31
2022-10-17T20:26:46.977Z,19.22
2022-10-17T20:29:23.579Z,19.16
2022-10-17T20:31:53.175Z,19.11
2022-10-17T20:34:21.774Z,19.09
2022-10-17T20:36:50.733Z,19.03
2022-10-17T20:39:21.413Z,19.00
2022-10-17T20:41:50.112Z,19.00
2022-10-17T20:44:18.394Z,18.97
2022-10-17T20:47:00.713Z,18.89
2022-10-17T20:49:32.069Z,18.87
2022-10-17T20:52:01.820Z,18.83
2022-10-17T20:54:30.243Z,18.80
2022-10-17T20:57:01.131Z,18.77
2022-10-17T20:59:34.287Z,18.79
2022-10-17T21:02:02.904Z,18.81
2022-10-17T21:04:46.001Z,18.78
2022-10-17T21:07:15.653Z,18.71
2022-10-17T21:09:45.308Z,18.62
2022-10-17T21:12:21.583Z,18.49
2022-10-17T21:14:59.452Z,18.32
2022-10-17T21:17:28.151Z,18.32
2022-10-17T21:19:57.700Z,18.22
2022-10-17T21:22:26.086Z,18.17
2022-10-17T21:24:54.408Z,18.08
2022-10-17T21:27:22.738Z,18.01
2022-10-17T21:29:52.058Z,17.98
2022-10-17T21:32:33.340Z,17.92
2022-10-17T21:35:10.560Z,17.84
2022-10-17T21:37:38.888Z,17.88
2022-10-17T21:40:09.139Z,17.76
2022-10-17T21:42:37.362Z,17.65
2022-10-17T21:45:15.146Z,17.60
2022-10-17T21:47:54.956Z,17.46
2022-10-17T21:50:33.583Z,17.35
2022-10-17T21:53:01.812Z,17.28
2022-10-17T21:55:30.064Z,17.11
2022-10-17T21:57:58.385Z,17.10
2022-10-17T22:00:26.613Z,17.01
2022-10-17T22:02:54.921Z,16.97
2022-10-17T22:05:23.343Z,16.97
2022-10-17T22:07:52.898Z,16.96
2022-10-17T22:10:21.215Z,16.99
2022-10-17T22:12:49.423Z,17.05
2022-10-17T22:15:17.826Z,17.06
2022-10-17T22:17:46.066Z,16.88
2022-10-17T22:20:14.337Z,16.84
2022-10-17T22:22:42.537Z,16.75
2022-10-17T22:25:12.538Z,16.72
2022-10-17T22:27:41.004Z,16.68
2022-10-17T22:30:11.218Z,16.64
2022-10-17T22:32:39.446Z,16.66
2022-10-17T22:35:09.041Z,16.66
2022-10-17T22:37:37.567Z,16.62
2022-10-17T22:40:07.783Z,16.67
2022-10-17T22:42:37.562Z,16.58
2022-10-17T22:45:06.847Z,16.55
2022-10-17T22:47:35.111Z,16.55
2022-10-17T22:50:03.516Z,16.54
2022-10-17T22:52:31.992Z,16.58
2022-10-17T22:55:00.455Z,16.57
2022-10-17T22:57:28.665Z,16.55
2022-10-17T22:59:58.342Z,16.57
2022-10-17T23:02:26.661Z,16.54
2022-10-17T23:04:54.850Z,16.52
2022-10-17T23:07:23.243Z,16.55
2022-10-17T23:09:51.964Z,16.53
2022-10-17T23:12:20.654Z,16.57
2022-10-17T23:14:48.992Z,16.59
2022-10-17T23:17:19.078Z,16.63
2022-10-17T23:19:47.372Z,16.65
2022-10-17T23:22:15.627Z,16.66
2022-10-17T23:24:43.936Z,16.64
2022-10-17T23:27:12.287Z,16.61
2022-10-17T23:29:40.471Z,16.55
2022-10-17T23:32:08.839Z,16.50
2022-10-17T23:34:38.408Z,16.51
2022-10-17T23:37:06.778Z,16.45
2022-10-17T23:39:35.111Z,16.43
2022-10-17T23:42:03.324Z,16.44
2022-10-17T23:44:31.724Z,16.51
2022-10-17T23:47:00.086Z,16.47
2022-10-17T23:49:28.763Z,16.44
2022-10-17T23:51:58.481Z,16.40
2022-10-17T23:54:26.732Z,16.36
2022-10-17T23:56:55.026Z,16.34
2022-10-17T23:59:23.300Z,16.36
